Time;durP1;ratioP1;P1;durP2;ratioP2;P2;SDS_P1;SDS_P2;PMS_P1;PMS_P2;Temp;Humidity;BMP_temperature;BMP_pressure;BME280_temperature;BME280_humidity;BME280_pressure;Samples;Min_cycle;Max_cycle;Signal;HPM_P1;HPM_P2
2023/02/10 00:01:14;;;;;;;62.00;32.65;;;1.80;99.90;;;;;;6187457;23;20009;-74
2023/02/10 00:03:40;;;;;;;61.40;30.77;;;1.70;99.90;;;;;;6186828;23;20044;-75
2023/02/10 00:06:07;;;;;;;59.35;30.98;;;1.60;99.90;;;;;;6187033;23;20327;-75
2023/02/10 00:08:33;;;;;;;63.28;29.60;;;1.80;99.90;;;;;;6187210;23;20021;-75
2023/02/10 00:11:01;;;;;;;64.45;31.20;;;1.70;99.90;;;;;;6187066;23;20005;-75
2023/02/10 00:13:27;;;;;;;60.05;29.85;;;1.80;99.90;;;;;;6160781;23;20013;-75
2023/02/10 00:15:53;;;;;;;67.10;32.30;;;1.60;99.90;;;;;;6185228;23;20146;-74
2023/02/10 00:18:19;;;;;;;70.75;31.55;;;1.60;99.90;;;;;;6187001;23;20084;-74
2023/02/10 00:20:45;;;;;;;62.22;30.67;;;1.60;99.90;;;;;;6186991;23;20394;-74
2023/02/10 00:23:10;;;;;;;60.85;31.73;;;1.60;99.90;;;;;;6185115;23;20016;-74
2023/02/10 00:25:36;;;;;;;56.60;30.58;;;1.60;99.90;;;;;;6186316;23;20379;-72
2023/02/10 00:28:02;;;;;;;63.85;29.63;;;1.70;99.90;;;;;;6184648;23;20013;-73
2023/02/10 00:30:28;;;;;;;61.22;30.05;;;1.90;99.90;;;;;;6185070;23;20067;-73
2023/02/10 00:32:54;;;;;;;63.88;29.38;;;1.80;99.90;;;;;;6185232;23;20095;-73
2023/02/10 00:35:20;;;;;;;59.42;29.10;;;1.70;99.90;;;;;;6185318;23;20304;-73
2023/02/10 00:37:45;;;;;;;61.13;29.77;;;1.70;99.90;;;;;;6160154;23;20079;-73
2023/02/10 00:40:11;;;;;;;60.83;29.38;;;1.70;99.90;;;;;;6184976;23;20084;-73
2023/02/10 00:42:37;;;;;;;58.20;27.45;;;1.60;99.90;;;;;;6184941;23;20327;-73
2023/02/10 00:45:03;;;;;;;62.10;28.20;;;1.60;99.90;;;;;;6186791;23;20009;-73
2023/02/10 00:47:29;;;;;;;63.72;28.95;;;1.50;99.90;;;;;;6184783;23;20069;-74
2023/02/10 00:49:54;;;;;;;65.55;31.25;;;1.40;99.90;;;;;;6184835;23;20025;-74
2023/02/10 00:52:21;;;;;;;63.72;29.67;;;1.40;99.90;;;;;;6186676;23;20013;-73
2023/02/10 00:54:47;;;;;;;59.63;28.88;;;1.60;99.90;;;;;;6184816;23;20009;-73
2023/02/10 00:57:12;;;;;;;63.42;28.10;;;1.50;99.90;;;;;;6186470;23;20017;-74
2023/02/10 00:59:38;;;;;;;57.60;26.40;;;1.60;99.90;;;;;;6187271;23;20065;-73
2023/02/10 01:02:04;;;;;;;51.67;26.02;;;1.70;99.90;;;;;;6186468;23;20013;-73
2023/02/10 01:04:29;;;;;;;56.78;27.33;;;1.50;99.90;;;;;;6186699;23;20013;-73
2023/02/10 01:06:55;;;;;;;61.85;29.05;;;1.40;99.90;;;;;;6184593;23;20013;-73
2023/02/10 01:09:21;;;;;;;58.63;27.23;;;1.30;99.90;;;;;;6185143;23;20009;-73
2023/02/10 01:11:46;;;;;;;55.15;27.13;;;1.50;99.90;;;;;;6184831;23;20092;-74
2023/02/10 01:14:12;;;;;;;65.43;27.60;;;1.60;99.90;;;;;;6187226;23;20020;-73
2023/02/10 01:16:38;;;;;;;51.58;26.00;;;1.70;99.90;;;;;;6184795;23;20012;-73
2023/02/10 01:19:06;;;;;;;57.78;24.88;;;1.60;99.90;;;;;;6184718;23;20021;-73
2023/02/10 01:21:33;;;;;;;57.35;25.67;;;1.50;99.90;;;;;;6185119;23;20338;-73
2023/02/10 01:23:58;;;;;;;56.30;23.75;;;1.50;99.90;;;;;;6184584;23;20435;-73
2023/02/10 01:26:24;;;;;;;54.38;24.23;;;1.40;99.90;;;;;;6184463;23;20027;-73
2023/02/10 01:28:50;;;;;;;60.90;25.20;;;1.20;99.90;;;;;;6186073;23;20040;-74
2023/02/10 01:31:19;;;;;;;57.33;26.67;;;1.10;99.90;;;;;;6184793;23;20445;-73
2023/02/10 01:33:45;;;;;;;51.90;24.08;;;1.20;99.90;;;;;;6186507;23;20064;-74
2023/02/10 01:36:17;;;;;;;55.30;25.45;;;1.00;99.90;;;;;;6187125;23;20091;-73
2023/02/10 01:38:44;;;;;;;52.47;25.25;;;1.20;99.90;;;;;;6188111;23;20021;-73
2023/02/10 01:41:10;;;;;;;57.53;25.40;;;1.10;99.90;;;;;;6188062;23;20469;-73
2023/02/10 01:43:54;;;;;;;63.08;24.80;;;1.20;99.90;;;;;;6188103;23;20013;-73
2023/02/10 01:46:20;;;;;;;56.65;24.45;;;0.90;99.90;;;;;;6188182;23;20021;-73
2023/02/10 01:48:45;;;;;;;54.65;24.88;;;1.10;99.90;;;;;;6186626;23;20017;-73
2023/02/10 01:51:12;;;;;;;60.38;24.90;;;1.00;99.90;;;;;;6188451;23;20013;-74
2023/02/10 01:53:39;;;;;;;57.28;25.08;;;1.20;99.90;;;;;;6188321;23;20084;-73
2023/02/10 01:56:05;;;;;;;60.40;26.27;;;1.10;99.90;;;;;;6188204;23;20016;-73
2023/02/10 01:58:33;;;;;;;58.33;26.30;;;1.20;99.90;;;;;;6187956;23;20359;-73
2023/02/10 02:00:59;;;;;;;65.10;26.42;;;1.40;99.90;;;;;;6188508;23;20009;-73
2023/02/10 02:03:25;;;;;;;51.70;25.48;;;1.40;99.90;;;;;;6186560;23;20017;-74
2023/02/10 02:05:51;;;;;;;61.65;27.08;;;1.50;99.90;;;;;;6188411;23;20024;-74
2023/02/10 02:08:43;;;;;;;56.38;26.85;;;1.30;99.90;;;;;;6188594;23;20008;-74
2023/02/10 02:11:26;;;;;;;57.05;25.25;;;1.30;99.90;;;;;;6182380;23;20079;-74
2023/02/10 02:14:04;;;;;;;61.05;27.42;;;1.50;99.90;;;;;;6188931;23;20017;-73
2023/02/10 02:16:48;;;;;;;54.55;26.70;;;1.50;99.90;;;;;;6188859;23;20017;-74
2023/02/10 02:19:38;;;;;;;58.40;27.08;;;1.50;99.90;;;;;;6188380;23;20021;-74
2023/02/10 02:22:10;;;;;;;54.72;27.38;;;1.40;99.90;;;;;;6187817;23;20476;-74
2023/02/10 02:24:54;;;;;;;57.53;26.25;;;1.30;99.90;;;;;;6188208;23;20031;-74
2023/02/10 02:27:50;;;;;;;55.53;25.30;;;1.40;99.90;;;;;;6186438;23;20016;-73
2023/02/10 02:30:32;;;;;;;66.22;27.40;;;1.20;99.90;;;;;;6188476;23;20020;-74
2023/02/10 02:33:07;;;;;;;66.70;28.02;;;1.20;99.90;;;;;;6186331;23;20013;-73
2023/02/10 02:35:40;;;;;;;60.72;29.48;;;1.20;99.90;;;;;;6188138;23;20016;-73
2023/02/10 02:38:06;;;;;;;63.38;31.15;;;1.30;99.90;;;;;;6186133;23;20017;-73
2023/02/10 02:40:32;;;;;;;62.78;29.63;;;1.40;99.90;;;;;;6161397;23;20019;-73
2023/02/10 02:43:01;;;;;;;64.95;28.80;;;1.20;99.90;;;;;;6186684;23;20024;-73
2023/02/10 02:46:03;;;;;;;60.00;30.60;;;1.20;99.90;;;;;;6161598;23;20028;-73
2023/02/10 02:49:07;;;;;;;61.80;31.35;;;1.40;99.90;;;;;;6179432;23;20091;-73
2023/02/10 02:51:52;;;;;;;63.00;30.80;;;1.40;99.90;;;;;;6186161;23;20087;-73
2023/02/10 02:54:26;;;;;;;64.55;29.70;;;1.20;99.90;;;;;;6186099;23;20024;-74
2023/02/10 02:57:16;;;;;;;64.90;30.38;;;1.20;99.90;;;;;;6187977;23;20319;-73
2023/02/10 03:00:10;;;;;;;61.42;29.92;;;1.30;99.90;;;;;;6187979;23;20013;-73
2023/02/10 03:02:41;;;;;;;69.70;31.58;;;1.10;99.90;;;;;;6107603;23;20016;-73
2023/02/10 03:05:08;;;;;;;64.95;31.00;;;1.30;99.90;;;;;;6187410;23;20073;-74
2023/02/10 03:07:33;;;;;;;66.90;31.38;;;1.30;99.90;;;;;;6187553;23;20009;-73
2023/02/10 03:09:59;;;;;;;64.97;32.45;;;1.20;99.90;;;;;;6187750;23;20044;-73
2023/02/10 03:12:25;;;;;;;69.18;32.10;;;1.10;99.90;;;;;;6185858;23;20044;-74
2023/02/10 03:14:50;;;;;;;59.88;29.10;;;1.10;99.90;;;;;;6185875;23;20438;-74
2023/02/10 03:17:16;;;;;;;64.80;31.75;;;0.90;99.90;;;;;;6187728;23;20013;-73
2023/02/10 03:19:42;;;;;;;64.32;30.83;;;1.00;99.90;;;;;;6188256;23;20047;-74
2023/02/10 03:22:07;;;;;;;66.88;31.95;;;1.10;99.90;;;;;;6187221;23;20013;-73
2023/02/10 03:24:33;;;;;;;67.53;31.25;;;1.10;99.90;;;;;;6187259;23;20116;-73
2023/02/10 03:26:59;;;;;;;69.05;31.98;;;1.00;99.90;;;;;;6187002;23;20071;-73
2023/02/10 03:29:24;;;;;;;62.22;29.08;;;1.20;99.90;;;;;;6187015;23;20476;-73
2023/02/10 03:31:50;;;;;;;61.08;31.45;;;1.10;99.90;;;;;;6187194;23;20415;-73
2023/02/10 03:34:16;;;;;;;64.35;31.60;;;1.10;99.90;;;;;;6160756;23;20024;-73
2023/02/10 03:36:41;;;;;;;71.13;32.13;;;1.10;99.90;;;;;;6185575;23;20016;-73
2023/02/10 03:39:07;;;;;;;56.45;30.02;;;1.20;99.90;;;;;;6185559;23;20457;-74
2023/02/10 03:41:33;;;;;;;66.00;30.38;;;1.10;99.90;;;;;;6185504;23;20013;-73
2023/02/10 03:43:58;;;;;;;60.67;30.20;;;1.20;99.90;;;;;;6185908;23;20071;-73
2023/02/10 03:46:24;;;;;;;54.83;28.15;;;1.10;99.90;;;;;;6187314;23;20013;-74
2023/02/10 03:48:49;;;;;;;63.08;30.77;;;1.00;99.90;;;;;;6187300;23;20009;-73
2023/02/10 03:51:15;;;;;;;65.13;30.65;;;1.20;99.90;;;;;;6187295;23;20009;-73
2023/02/10 03:53:41;;;;;;;55.97;29.48;;;1.00;99.90;;;;;;6185368;23;20040;-73
2023/02/10 03:56:07;;;;;;;61.55;29.20;;;1.20;99.90;;;;;;6187176;23;20016;-73
2023/02/10 03:58:33;;;;;;;64.70;27.58;;;1.00;99.90;;;;;;6187294;23;20017;-73
2023/02/10 04:00:59;;;;;;;61.03;30.42;;;1.00;99.90;;;;;;6185270;23;20016;-73
2023/02/10 04:03:24;;;;;;;56.60;27.80;;;1.20;99.90;;;;;;6185332;23;20012;-73
2023/02/10 04:05:50;;;;;;;58.97;28.63;;;1.10;99.90;;;;;;6160395;23;20013;-73
2023/02/10 04:08:16;;;;;;;62.85;27.67;;;1.10;99.90;;;;;;6185765;23;20009;-73
2023/02/10 04:10:42;;;;;;;61.13;27.48;;;1.00;99.90;;;;;;6185243;23;20063;-73
2023/02/10 04:13:07;;;;;;;61.90;28.98;;;1.00;99.90;;;;;;6185648;23;20040;-73
2023/02/10 04:15:33;;;;;;;62.72;26.08;;;0.90;99.90;;;;;;6186873;23;20016;-73
2023/02/10 04:17:59;;;;;;;61.53;28.58;;;1.00;99.90;;;;;;6185175;23;20021;-73
2023/02/10 04:20:25;;;;;;;62.95;28.52;;;0.90;99.90;;;;;;6160383;23;20053;-73
2023/02/10 04:22:51;;;;;;;50.90;26.98;;;0.90;99.90;;;;;;6186954;23;20017;-73
2023/02/10 04:25:17;;;;;;;58.50;28.88;;;0.90;99.90;;;;;;6185016;23;20019;-73
2023/02/10 04:27:42;;;;;;;58.13;30.17;;;1.20;99.90;;;;;;6186529;23;20016;-72
2023/02/10 04:30:09;;;;;;;61.85;27.55;;;1.20;99.90;;;;;;6185097;23;20354;-74
2023/02/10 04:32:35;;;;;;;51.78;27.60;;;1.20;99.90;;;;;;6186946;23;20013;-74
2023/02/10 04:35:01;;;;;;;59.55;27.73;;;1.20;99.90;;;;;;6186562;23;20088;-73
2023/02/10 04:37:27;;;;;;;61.95;27.80;;;1.20;99.90;;;;;;6186407;23;20509;-74
2023/02/10 04:39:52;;;;;;;65.15;29.55;;;1.10;99.90;;;;;;6184992;23;20016;-73
2023/02/10 04:42:18;;;;;;;51.72;27.58;;;1.30;99.90;;;;;;6186805;23;20013;-73
2023/02/10 04:44:44;;;;;;;55.83;27.65;;;1.10;99.90;;;;;;6160174;23;20454;-73
2023/02/10 04:47:10;;;;;;;52.70;27.00;;;1.40;99.90;;;;;;6186435;23;20016;-73
2023/02/10 04:49:35;;;;;;;55.50;27.08;;;1.40;99.90;;;;;;6160101;23;20027;-73
2023/02/10 04:52:01;;;;;;;58.95;27.00;;;1.30;99.90;;;;;;6186469;23;20149;-74
2023/02/10 04:54:27;;;;;;;51.60;26.90;;;1.40;99.90;;;;;;6184775;23;20060;-73
2023/02/10 04:56:53;;;;;;;47.95;25.35;;;1.30;99.90;;;;;;6186222;23;20043;-73
2023/02/10 04:59:18;;;;;;;50.42;24.55;;;1.50;99.90;;;;;;6184967;23;20048;-74
2023/02/10 05:01:44;;;;;;;49.97;24.10;;;1.40;99.90;;;;;;6160116;23;20346;-73
2023/02/10 05:04:09;;;;;;;55.13;25.45;;;1.40;99.90;;;;;;6186654;23;20013;-74
2023/02/10 05:06:35;;;;;;;48.17;24.80;;;1.30;99.90;;;;;;6184695;23;20020;-73
2023/02/10 05:09:01;;;;;;;47.97;23.52;;;1.40;99.90;;;;;;6184764;23;20032;-73
2023/02/10 05:11:26;;;;;;;47.95;23.95;;;1.30;99.90;;;;;;6185822;23;20009;-73
2023/02/10 05:13:52;;;;;;;45.03;23.92;;;1.10;99.90;;;;;;6186597;23;20021;-74
2023/02/10 05:16:18;;;;;;;45.33;22.55;;;1.30;99.90;;;;;;6160035;23;20446;-73
2023/02/10 05:18:43;;;;;;;41.15;23.40;;;1.20;99.90;;;;;;6186597;23;20039;-73
2023/02/10 05:21:11;;;;;;;48.53;22.42;;;1.20;99.90;;;;;;6186638;23;20579;-73
2023/02/10 05:23:37;;;;;;;48.88;23.95;;;1.20;99.90;;;;;;6184747;23;20020;-73
2023/02/10 05:26:03;;;;;;;49.75;22.55;;;1.30;99.90;;;;;;6184528;23;20021;-73
2023/02/10 05:28:28;;;;;;;44.95;24.13;;;1.20;99.90;;;;;;6184595;23;20021;-73
2023/02/10 05:30:54;;;;;;;43.20;23.10;;;1.30;99.90;;;;;;6186776;23;20082;-73
2023/02/10 05:33:20;;;;;;;44.08;22.77;;;1.10;99.90;;;;;;6186684;23;20009;-74
2023/02/10 05:35:46;;;;;;;43.85;23.30;;;1.30;99.90;;;;;;6186662;23;20024;-73
2023/02/10 05:38:12;;;;;;;47.30;23.25;;;1.10;99.90;;;;;;6184670;23;20038;-73
2023/02/10 05:40:38;;;;;;;43.03;22.40;;;1.20;99.90;;;;;;6186057;23;20460;-73
2023/02/10 05:43:03;;;;;;;46.30;22.10;;;1.20;99.90;;;;;;6186426;23;20048;-74
2023/02/10 05:45:29;;;;;;;42.33;21.70;;;1.30;99.90;;;;;;6186450;23;20009;-73
2023/02/10 05:47:55;;;;;;;49.67;23.33;;;1.10;99.90;;;;;;6186344;23;20438;-74
2023/02/10 05:50:20;;;;;;;48.22;22.83;;;1.20;99.90;;;;;;6184566;23;20013;-73
2023/02/10 05:52:46;;;;;;;42.95;21.38;;;1.00;99.90;;;;;;6184491;23;20013;-73
2023/02/10 05:55:12;;;;;;;45.60;22.05;;;1.20;99.90;;;;;;6184368;23;20009;-73
2023/02/10 05:57:37;;;;;;;44.42;21.90;;;1.10;99.90;;;;;;6184384;23;20013;-73
2023/02/10 06:00:05;;;;;;;46.20;24.42;;;0.90;99.90;;;;;;6184470;23;20017;-73
2023/02/10 06:02:30;;;;;;;51.05;23.27;;;1.10;99.90;;;;;;6184543;23;20516;-73
2023/02/10 06:04:56;;;;;;;45.78;23.77;;;1.10;99.90;;;;;;6184908;23;20036;-74
2023/02/10 06:07:22;;;;;;;50.63;23.40;;;1.10;99.90;;;;;;6184504;23;20016;-73
2023/02/10 06:09:47;;;;;;;48.88;25.00;;;1.00;99.90;;;;;;6186378;23;20385;-77
2023/02/10 06:12:13;;;;;;;51.33;23.50;;;1.00;99.90;;;;;;6186304;23;20010;-75
2023/02/10 06:14:39;;;;;;;46.58;25.00;;;1.00;99.90;;;;;;6186297;23;20009;-75
2023/02/10 06:17:08;;;;;;;44.53;23.15;;;0.90;99.90;;;;;;6186527;23;20048;-75
2023/02/10 06:19:38;;;;;;;56.72;23.58;;;1.00;99.90;;;;;;6184456;23;20017;-76
2023/02/10 06:22:06;;;;;;;46.63;22.98;;;1.00;99.90;;;;;;6186846;23;20374;-75
2023/02/10 06:24:31;;;;;;;43.65;22.98;;;0.90;99.90;;;;;;6187880;23;20013;-74
2023/02/10 06:26:57;;;;;;;46.38;23.50;;;0.90;99.90;;;;;;6187927;23;20031;-75
2023/02/10 06:29:23;;;;;;;40.28;21.35;;;1.10;99.90;;;;;;6187591;23;20059;-75
2023/02/10 06:31:48;;;;;;;42.42;23.10;;;1.00;99.90;;;;;;6186298;23;20403;-74
2023/02/10 06:34:14;;;;;;;45.95;22.85;;;1.00;99.90;;;;;;6161353;23;20088;-74
2023/02/10 06:36:40;;;;;;;44.35;22.05;;;1.10;99.90;;;;;;6186113;23;20021;-75
2023/02/10 06:39:05;;;;;;;44.80;22.17;;;1.10;99.90;;;;;;6188033;23;20024;-75
2023/02/10 06:41:32;;;;;;;41.92;23.33;;;1.10;99.90;;;;;;6186172;23;20073;-75
2023/02/10 06:43:57;;;;;;;43.67;22.70;;;1.10;99.90;;;;;;6186173;23;20013;-75
2023/02/10 06:46:24;;;;;;;44.35;22.08;;;1.10;99.90;;;;;;6186111;23;20342;-75
2023/02/10 06:48:49;;;;;;;40.00;22.35;;;1.10;99.90;;;;;;6186056;23;20009;-75
2023/02/10 06:51:15;;;;;;;47.33;22.13;;;0.90;99.90;;;;;;6188027;23;20044;-74
2023/02/10 06:53:42;;;;;;;42.22;20.85;;;1.10;99.90;;;;;;6186151;23;20012;-75
2023/02/10 06:56:08;;;;;;;43.72;21.83;;;1.00;99.90;;;;;;6187725;23;20092;-76
2023/02/10 06:58:33;;;;;;;38.80;21.25;;;1.10;99.90;;;;;;6186120;23;20017;-75
2023/02/10 07:01:00;;;;;;;41.13;21.35;;;1.00;99.90;;;;;;6186056;23;20017;-74
2023/02/10 07:03:26;;;;;;;41.47;23.05;;;0.90;99.90;;;;;;6187386;23;20017;-75
2023/02/10 07:05:52;;;;;;;45.58;21.17;;;1.00;99.90;;;;;;6185809;23;20017;-75
2023/02/10 07:08:18;;;;;;;41.78;21.05;;;1.00;99.90;;;;;;6187734;23;20055;-75
2023/02/10 07:10:44;;;;;;;39.65;21.65;;;1.00;99.90;;;;;;6187604;23;20009;-74
2023/02/10 07:13:10;;;;;;;43.75;21.63;;;1.10;99.90;;;;;;6187717;23;20008;-74
2023/02/10 07:15:38;;;;;;;41.90;21.23;;;1.00;99.90;;;;;;6187696;23;20020;-74
2023/02/10 07:18:04;;;;;;;45.85;21.55;;;1.20;99.90;;;;;;6187327;23;20017;-74
2023/02/10 07:20:30;;;;;;;45.08;23.98;;;1.10;99.90;;;;;;6187476;23;20009;-68
2023/02/10 07:22:55;;;;;;;47.30;25.40;;;0.90;99.90;;;;;;6185682;23;20086;-73
2023/02/10 07:25:21;;;;;;;55.83;25.48;;;0.80;99.90;;;;;;6187137;23;20024;-75
2023/02/10 07:27:46;;;;;;;46.15;22.67;;;1.10;99.90;;;;;;6187714;23;20104;-73
2023/02/10 07:30:12;;;;;;;47.78;25.05;;;0.90;99.90;;;;;;6160855;23;20045;-70
2023/02/10 07:32:38;;;;;;;50.05;25.80;;;1.00;99.90;;;;;;6187544;23;20085;-70
2023/02/10 07:35:04;;;;;;;50.05;23.85;;;0.90;99.90;;;;;;6187161;23;20380;-70
2023/02/10 07:37:31;;;;;;;42.83;21.42;;;1.00;99.90;;;;;;6185687;23;20016;-70
2023/02/10 07:39:57;;;;;;;38.38;21.55;;;1.10;99.90;;;;;;6185703;23;20517;-82
2023/02/10 07:42:23;;;;;;;41.25;23.17;;;0.90;99.90;;;;;;6185612;23;20055;-80
2023/02/10 07:44:48;;;;;;;43.75;24.63;;;1.00;99.90;;;;;;6160769;23;20059;-77
2023/02/10 07:47:14;;;;;;;46.60;25.20;;;1.00;99.90;;;;;;6187534;23;20014;-79
2023/02/10 07:49:40;;;;;;;46.25;23.60;;;1.30;99.90;;;;;;6185867;23;20005;-78
2023/02/10 07:52:05;;;;;;;42.72;23.52;;;1.30;99.90;;;;;;6186651;23;20308;-81
2023/02/10 07:54:31;;;;;;;43.15;24.75;;;1.10;99.90;;;;;;6160580;23;20020;-79
2023/02/10 07:56:57;;;;;;;40.35;24.90;;;1.30;99.90;;;;;;6160463;23;20055;-80
2023/02/10 07:59:22;;;;;;;41.13;23.08;;;1.10;99.90;;;;;;6185350;23;20480;-79
2023/02/10 08:01:48;;;;;;;45.40;24.17;;;1.30;99.90;;;;;;6185539;23;20017;-77
2023/02/10 08:04:14;;;;;;;45.50;24.95;;;1.20;99.90;;;;;;6187176;23;20009;-77
2023/02/10 08:06:40;;;;;;;40.47;23.65;;;1.40;99.90;;;;;;6185172;23;20021;-79
2023/02/10 08:09:07;;;;;;;45.17;24.27;;;1.20;99.90;;;;;;6160292;23;20084;-77
2023/02/10 08:11:33;;;;;;;43.15;22.25;;;1.30;99.90;;;;;;6160491;23;20085;-78
2023/02/10 08:13:59;;;;;;;45.03;24.60;;;1.20;99.90;;;;;;6187099;23;20403;-78
2023/02/10 08:16:25;;;;;;;48.00;25.50;;;1.50;99.90;;;;;;6185320;23;20442;-78
2023/02/10 08:18:53;;;;;;;39.97;23.75;;;1.50;99.90;;;;;;6185270;23;20151;-78
2023/02/10 08:21:19;;;;;;;53.55;24.92;;;1.40;99.90;;;;;;6185166;23;20017;-72
2023/02/10 08:23:45;;;;;;;42.25;23.73;;;1.40;99.90;;;;;;6187118;23;20084;-77
2023/02/10 08:26:12;;;;;;;42.65;23.65;;;1.60;99.90;;;;;;6160322;23;20017;-78
2023/02/10 08:28:39;;;;;;;45.03;24.10;;;1.50;99.90;;;;;;6184851;23;20009;-78
2023/02/10 08:31:08;;;;;;;44.20;22.88;;;1.60;99.90;;;;;;6185155;23;20013;-81
2023/02/10 08:33:35;;;;;;;44.85;23.05;;;1.70;99.90;;;;;;6185132;23;20036;-80
2023/02/10 08:36:12;;;;;;;44.22;23.92;;;1.90;99.90;;;;;;6185561;23;20009;-73
2023/02/10 08:38:38;;;;;;;43.55;22.75;;;2.00;99.90;;;;;;6160529;23;20020;-78
2023/02/10 08:41:04;;;;;;;45.58;24.52;;;1.90;99.90;;;;;;6185155;23;20012;-79
2023/02/10 08:43:30;;;;;;;49.47;23.23;;;2.10;99.90;;;;;;6185476;23;20015;-83
2023/02/10 08:45:57;;;;;;;37.67;22.92;;;2.30;99.90;;;;;;6185271;23;20059;-79
2023/02/10 08:48:23;;;;;;;44.08;22.92;;;2.20;99.90;;;;;;6160150;23;20023;-81
2023/02/10 08:50:49;;;;;;;41.08;24.23;;;2.20;99.90;;;;;;6185157;23;20017;-80
2023/02/10 08:53:15;;;;;;;40.22;23.02;;;2.20;99.90;;;;;;6160126;23;20016;-81
2023/02/10 08:55:41;;;;;;;36.83;22.48;;;2.40;99.90;;;;;;6184964;23;20063;-82
2023/02/10 08:58:07;;;;;;;46.00;24.58;;;2.40;99.90;;;;;;6185484;23;20021;-81
2023/02/10 09:00:32;;;;;;;43.55;23.02;;;2.30;99.90;;;;;;6184955;23;20020;-81
2023/02/10 09:02:58;;;;;;;42.67;26.10;;;2.50;99.90;;;;;;6186405;23;20066;-81
2023/02/10 09:05:24;;;;;;;45.10;25.60;;;2.30;99.90;;;;;;6185259;23;20020;-80
2023/02/10 09:07:50;;;;;;;44.75;25.48;;;2.30;99.90;;;;;;6159978;23;20009;-80
2023/02/10 09:10:15;;;;;;;44.05;25.52;;;2.50;99.90;;;;;;6184708;23;20005;-80
2023/02/10 09:12:42;;;;;;;51.45;25.13;;;2.30;99.90;;;;;;6159909;23;20060;-80
2023/02/10 09:15:08;;;;;;;42.17;23.92;;;2.50;99.90;;;;;;6159842;23;20013;-80
2023/02/10 09:17:34;;;;;;;46.47;24.67;;;2.40;99.90;;;;;;6185165;23;20013;-80
2023/02/10 09:20:00;;;;;;;43.63;25.67;;;2.40;99.90;;;;;;6186545;23;20364;-78
2023/02/10 09:22:25;;;;;;;47.17;27.17;;;2.50;99.90;;;;;;6184842;23;20024;-75
2023/02/10 09:24:52;;;;;;;40.05;27.15;;;2.40;99.90;;;;;;6159765;23;20017;-81
2023/02/10 09:27:18;;;;;;;45.67;27.33;;;2.60;99.90;;;;;;6186117;23;20009;-82
2023/02/10 09:29:45;;;;;;;45.03;26.17;;;2.40;99.90;;;;;;6184436;23;20095;-82
2023/02/10 09:32:11;;;;;;;46.53;29.00;;;2.50;99.90;;;;;;6185196;23;20013;-82
2023/02/10 09:34:37;;;;;;;47.17;28.23;;;2.70;99.90;;;;;;6186515;23;20308;-82
2023/02/10 09:37:03;;;;;;;47.35;28.58;;;2.70;99.90;;;;;;6186452;23;20013;-82
2023/02/10 09:39:29;;;;;;;45.70;27.40;;;2.90;99.90;;;;;;6184988;23;20015;-82
2023/02/10 09:42:55;;;;;;;49.75;28.58;;;2.90;99.90;;;;;;6185031;23;20063;-82
2023/02/10 09:45:26;;;;;;;45.80;27.15;;;3.00;99.90;;;;;;6066457;23;20448;-77
2023/02/10 09:48:02;;;;;;;48.15;27.00;;;3.10;99.90;;;;;;6066781;23;20019;-78
2023/02/10 09:50:43;;;;;;;42.28;26.20;;;3.20;99.90;;;;;;6042457;23;20015;-77
2023/02/10 09:53:25;;;;;;;46.80;27.88;;;3.20;99.90;;;;;;6018774;23;20015;-78
2023/02/10 09:55:59;;;;;;;44.30;27.60;;;3.50;99.90;;;;;;6042270;23;20033;-78
2023/02/10 09:58:37;;;;;;;44.70;25.00;;;3.60;99.90;;;;;;6042911;23;20019;-78
2023/02/10 10:01:06;;;;;;;45.65;26.58;;;3.60;99.90;;;;;;6044441;23;20066;-77
2023/02/10 10:03:50;;;;;;;45.53;25.98;;;3.80;99.90;;;;;;6068163;23;20011;-75
2023/02/10 10:06:27;;;;;;;42.63;25.40;;;3.70;99.90;;;;;;6044296;23;20015;-73
2023/02/10 10:09:08;;;;;;;41.70;25.60;;;3.90;99.90;;;;;;6043512;23;20026;-73
2023/02/10 10:11:44;;;;;;;41.95;24.17;;;4.00;99.90;;;;;;6067637;23;20129;-73
2023/02/10 10:14:21;;;;;;;47.38;23.85;;;4.30;99.90;;;;;;6044094;23;20051;-73
2023/02/10 10:17:01;;;;;;;43.63;23.88;;;4.30;99.90;;;;;;6044177;23;20050;-73
2023/02/10 10:19:48;;;;;;;40.50;23.45;;;4.40;99.90;;;;;;6145846;23;20017;-74
2023/02/10 10:22:40;;;;;;;37.47;23.05;;;4.40;99.90;;;;;;6188250;23;20079;-74
2023/02/10 10:25:27;;;;;;;41.38;21.05;;;4.60;99.90;;;;;;6161623;23;20017;-74
2023/02/10 10:28:18;;;;;;;41.72;23.15;;;4.50;99.90;;;;;;6186099;23;20028;-74
2023/02/10 10:30:52;;;;;;;;;;;4.60;99.90;;;;;;6162101;23;20098;-75
2023/02/10 10:33:38;;;;;;;39.58;22.40;;;4.80;99.90;;;;;;6186977;23;19916;-76
2023/02/10 10:36:05;;;;;;;36.67;20.10;;;4.80;99.90;;;;;;6186335;23;20075;-75
2023/02/10 10:38:35;;;;;;;34.38;19.80;;;4.90;99.90;;;;;;6186331;23;20370;-75
2023/02/10 10:41:10;;;;;;;41.92;21.08;;;4.90;99.90;;;;;;6186259;23;20009;-75
2023/02/10 10:43:52;;;;;;;40.97;20.05;;;5.00;99.90;;;;;;6186470;23;20009;-75
2023/02/10 10:46:41;;;;;;;37.17;20.02;;;5.20;99.90;;;;;;6186459;23;20025;-75
2023/02/10 10:49:08;;;;;;;33.80;18.73;;;5.30;99.90;;;;;;6186178;23;20392;-75
2023/02/10 10:51:34;;;;;;;36.67;20.83;;;5.40;99.90;;;;;;6187991;23;20013;-81
2023/02/10 10:54:01;;;;;;;41.38;19.65;;;5.40;99.90;;;;;;6186534;23;20016;-81
2023/02/10 10:56:44;;;;;;;39.58;19.90;;;5.50;99.90;;;;;;6185913;23;20013;-75
2023/02/10 10:59:18;;;;;;;39.20;20.90;;;5.60;99.90;;;;;;6186556;23;20017;-75
2023/02/10 11:01:46;;;;;;;35.85;19.27;;;5.60;99.90;;;;;;6186413;23;20123;-74
2023/02/10 11:04:23;;;;;;;39.45;20.05;;;5.60;99.90;;;;;;6187869;23;20017;-75
2023/02/10 11:06:52;;;;;;;35.55;19.00;;;5.80;99.90;;;;;;6187725;23;20059;-76
2023/02/10 11:09:36;;;;;;;41.80;21.40;;;5.80;99.90;;;;;;6185425;23;20020;-75
2023/02/10 11:12:12;;;;;;;32.83;19.08;;;6.00;99.90;;;;;;6185932;23;20084;-74
2023/02/10 11:14:42;;;;;;;35.70;20.40;;;5.90;99.90;;;;;;6185741;23;20020;-74
2023/02/10 11:17:25;;;;;;;36.00;17.98;;;6.00;99.90;;;;;;6185986;23;20017;-72
2023/02/10 11:19:59;;;;;;;40.55;19.73;;;6.10;99.90;;;;;;6187398;23;20048;-74
2023/02/10 11:22:25;;;;;;;33.90;19.30;;;6.30;99.90;;;;;;6185792;23;20013;-73
2023/02/10 11:24:56;;;;;;;33.55;18.85;;;6.40;99.90;;;;;;6187637;23;20498;-80
2023/02/10 11:27:22;;;;;;;31.35;16.42;;;6.30;99.90;;;;;;6185676;23;20021;-78
2023/02/10 11:29:51;;;;;;;35.10;18.20;;;6.60;99.90;;;;;;6186911;23;20048;-76
2023/02/10 11:32:28;;;;;;;31.85;15.80;;;6.70;99.90;;;;;;6187204;23;20032;-76
2023/02/10 11:34:57;;;;;;;26.08;16.63;;;6.80;99.90;;;;;;6185611;23;20316;-75
2023/02/10 11:37:27;;;;;;;30.27;14.98;;;6.90;99.90;;;;;;6185657;23;20044;-82
2023/02/10 11:39:54;;;;;;;;;;;7.10;99.90;;;;;;6186166;23;20016;-76
2023/02/10 11:42:22;;;;;;;32.78;15.70;;;7.20;99.90;;;;;;6185629;23;20326;-77
2023/02/10 11:44:54;;;;;;;32.53;16.13;;;7.20;99.90;;;;;;6160457;23;20017;-69
2023/02/10 11:47:19;;;;;;;27.45;14.95;;;7.10;99.90;;;;;;6160738;23;20474;-70
2023/02/10 11:49:49;;;;;;;27.35;14.07;;;7.30;99.90;;;;;;6185871;23;20017;-74
2023/02/10 11:52:18;;;;;;;27.52;14.85;;;7.40;99.90;;;;;;6187254;23;20009;-73
2023/02/10 11:54:45;;;;;;;28.65;13.63;;;7.40;99.90;;;;;;6185426;23;20016;-73
2023/02/10 12:00:08;;;;;;;23.88;12.05;;;7.40;99.90;;;;;;6185426;23;20017;-72
2023/02/10 12:02:56;;;;;;;30.83;11.88;;;7.40;99.90;;;;;;6187483;23;20079;-72
2023/02/10 12:05:45;;;;;;;24.88;11.68;;;7.50;99.90;;;;;;6185319;23;20024;-73
2023/02/10 12:08:39;;;;;;;26.38;11.63;;;7.80;99.90;;;;;;6186823;23;20064;-72
2023/02/10 12:11:31;;;;;;;21.23;10.98;;;7.90;99.90;;;;;;6185407;23;20014;-72
2023/02/10 12:14:21;;;;;;;19.85;9.23;;;8.00;99.90;;;;;;6185444;23;20023;-73
2023/02/10 12:17:21;;;;;;;21.10;11.10;;;7.90;99.90;;;;;;6185774;23;20075;-72
2023/02/10 12:20:22;;;;;;;16.85;9.82;;;7.90;99.90;;;;;;6161235;23;20017;-72
2023/02/10 12:22:50;;;;;;;22.35;9.48;;;8.00;99.90;;;;;;6187208;23;20005;-73
2023/02/10 12:25:31;;;;;;;25.17;9.95;;;8.00;99.90;;;;;;6185093;23;20091;-73
2023/02/10 12:28:22;;;;;;;20.30;11.02;;;8.00;99.90;;;;;;6160122;23;20017;-72
2023/02/10 12:31:08;;;;;;;21.85;9.48;;;8.10;99.90;;;;;;6185190;23;20456;-73
2023/02/10 12:33:56;;;;;;;21.35;10.57;;;8.20;99.90;;;;;;6160413;23;20005;-73
2023/02/10 12:36:42;;;;;;;25.13;9.35;;;8.10;99.90;;;;;;6185119;23;20025;-72
2023/02/10 12:39:24;;;;;;;19.92;9.30;;;8.00;99.90;;;;;;6185060;23;20096;-73
2023/02/10 12:42:09;;;;;;;17.85;9.05;;;8.10;99.90;;;;;;6160205;23;20055;-73
2023/02/10 12:44:50;;;;;;;21.23;9.90;;;8.10;99.90;;;;;;6184970;23;20024;-72
2023/02/10 12:47:22;;;;;;;23.20;8.10;;;8.10;99.90;;;;;;6186946;23;20016;-73
2023/02/10 12:50:20;;;;;;;18.40;7.82;;;8.30;99.90;;;;;;6184876;23;20446;-72
2023/02/10 12:52:54;;;;;;;17.50;7.82;;;8.20;99.90;;;;;;6186790;23;20073;-73
2023/02/10 12:55:42;;;;;;;20.48;9.15;;;8.30;99.90;;;;;;6186421;23;20009;-72